»·PEaware :: SWA619 KPHX-KSLC

SWA619 :: KPHX-KSLC

FLIGHT INFORMATION

Flight Status: Arrived
Operator:
Southwest Airlines
More flights by this operator :: More flights under this callsign
Pilot: Anonymous 15452 (15452)
Aircraft: BOEING 737-200
(B732)
More flights by this aircraft type
Origin: KPHX Phoenix Sky Harbor Intl
United States
Destination: KSLC Salt Lake City Intl
United States
More flights between these airports :: More routes between these airports
Route: +SILOW4 BCE JAMMN5
File this flight plan on PilotEdge
Remarks:
Altitude:
(Current/Filed)
300ft
Speed:
(Current/Filed)
450kts
Departed: 20-Jan-18 11:56 AM
Arrived: 20-Jan-18 01:10 PM
Distance/Time
Traveled:
441nm/1:14
Distance/Time
To Go:
Arrived

Flight Plot

Page will automatically refresh every two minutes.

Flight plan parsing failed; only flown route is shown


Map Options




Map Legend


Flown Route
Filed Route
Departure Airport
Arrival Airport
Navaid (VOR, NDB)
Fix

Horizontal Profiles

Position Reports

Time Latitude Longitude Heading Altitude Ground
Speed
20-Jan-18 11:15 33.433689 -111.994814 82 1118ft 0kts
20-Jan-18 11:16 33.433689 -111.994814 82 1118ft 0kts
20-Jan-18 11:17 33.433689 -111.994814 82 1118ft 0kts
20-Jan-18 11:18 33.433689 -111.994814 82 1118ft 0kts
20-Jan-18 11:19 33.433689 -111.994814 82 1118ft 0kts
20-Jan-18 11:20 33.433689 -111.994814 82 1118ft 0kts
20-Jan-18 11:21 33.433689 -111.994814 82 1118ft 0kts
20-Jan-18 11:22 33.433689 -111.994814 82 1118ft 0kts
20-Jan-18 11:23 33.433689 -111.994814 82 1118ft 0kts
20-Jan-18 11:24 33.433689 -111.994814 82 1118ft 0kts
20-Jan-18 11:25 33.433689 -111.994814 82 1118ft 0kts
20-Jan-18 11:26 33.433689 -111.994814 82 1118ft 0kts
20-Jan-18 11:27 33.433689 -111.994814 82 1118ft 0kts
20-Jan-18 11:28 33.433689 -111.994814 82 1118ft 0kts
20-Jan-18 11:29 33.433689 -111.994814 82 1118ft 0kts
20-Jan-18 11:30 33.433689 -111.994814 82 1118ft 0kts
20-Jan-18 11:31 33.433689 -111.994814 82 1118ft 0kts
20-Jan-18 11:32 33.433689 -111.994814 82 1118ft 0kts
20-Jan-18 11:33 33.433689 -111.994814 82 1118ft 0kts
20-Jan-18 11:34 33.433689 -111.994814 82 1118ft 0kts
20-Jan-18 11:35 33.433697 -111.995085 112 1118ft 2kts
20-Jan-18 11:36 33.433996 -111.995303 180 1118ft 0kts
20-Jan-18 11:37 33.433996 -111.995303 180 1118ft 0kts
20-Jan-18 11:38 33.433996 -111.995303 180 1118ft 0kts
20-Jan-18 11:39 33.433996 -111.995303 180 1118ft 0kts
20-Jan-18 11:40 33.433996 -111.995303 180 1118ft 0kts
20-Jan-18 11:41 33.433996 -111.995303 180 1118ft 0kts
20-Jan-18 11:42 33.433996 -111.995303 180 1118ft 0kts
20-Jan-18 11:43 33.433996 -111.995303 180 1118ft 0kts
20-Jan-18 11:44 33.433996 -111.995303 180 1118ft 0kts
20-Jan-18 11:45 33.433996 -111.995303 180 1118ft 0kts
20-Jan-18 11:46 33.433996 -111.995303 180 1118ft 0kts
20-Jan-18 11:47 33.433996 -111.995303 180 1118ft 0kts
20-Jan-18 11:48 33.433996 -111.995303 180 1118ft 0kts
20-Jan-18 11:49 33.433996 -111.995303 180 1118ft 0kts
20-Jan-18 11:50 33.433996 -111.995303 180 1118ft 0kts
20-Jan-18 11:51 33.433865 -111.995305 180 1118ft 5kts
20-Jan-18 11:52 33.432865 -111.994858 101 1118ft 8kts
20-Jan-18 11:53 33.432811 -111.993544 93 1118ft 0kts
20-Jan-18 11:54 33.432655 -111.993452 181 1118ft 0kts
20-Jan-18 11:55 33.432655 -111.993452 181 1118ft 0kts
20-Jan-18 11:56 33.432655 -111.993452 181 1118ft 0kts
20-Jan-18 11:57 33.432632 -111.993452 181 1118ft 1kts
20-Jan-18 11:58 33.432033 -111.993465 180 1118ft 0kts
20-Jan-18 11:59 33.432033 -111.993465 180 1118ft 0kts
20-Jan-18 12:00 33.431013 -111.993836 270 1118ft 0kts
20-Jan-18 12:01 33.431013 -111.993836 270 1118ft 0kts
20-Jan-18 12:02 33.431087 -112.009903 271 1123ft 158kts
20-Jan-18 12:03 33.432178 -112.066131 270 4126ft 169kts
20-Jan-18 12:04 33.466392 -112.085553 19 6495ft 211kts
20-Jan-18 12:05 33.524585 -112.061750 10 8695ft 232kts
20-Jan-18 12:06 33.590483 -112.040734 8 10338ft 277kts
20-Jan-18 12:07 33.668644 -112.020406 8 12458ft 300kts
20-Jan-18 12:08 33.758235 -111.999002 7 13823ft 349kts
20-Jan-18 12:09 33.857475 -111.975936 7 15452ft 377kts
20-Jan-18 12:10 33.960881 -111.952048 6 17245ft 391kts
20-Jan-18 12:11 34.063501 -111.928330 6 18819ft 404kts
20-Jan-18 12:12 34.159470 -111.906229 6 20216ft 414kts
20-Jan-18 12:13 34.270663 -111.880469 6 21620ft 426kts
20-Jan-18 12:14 34.387232 -111.853333 5 22927ft 436kts
20-Jan-18 12:15 34.506089 -111.825602 5 24093ft 447kts
20-Jan-18 12:16 34.628287 -111.796973 5 25183ft 456kts
20-Jan-18 12:17 34.751618 -111.784104 348 26161ft 450kts
20-Jan-18 12:18 34.868807 -111.815099 335 27460ft 433kts
20-Jan-18 12:19 34.985693 -111.850132 335 28374ft 439kts
20-Jan-18 12:20 35.100063 -111.884490 335 29154ft 446kts
20-Jan-18 12:21 35.206377 -111.916263 335 29688ft 451kts
20-Jan-18 12:22 35.328670 -111.953208 335 29932ft 464kts
20-Jan-18 12:23 35.453773 -111.991120 336 29926ft 476kts
20-Jan-18 12:24 35.581501 -112.029928 336 29918ft 477kts
20-Jan-18 12:25 35.703887 -112.067298 336 29927ft 471kts
20-Jan-18 12:26 35.829214 -112.105678 336 29930ft 466kts
20-Jan-18 12:27 35.954275 -112.139807 343 29942ft 471kts
20-Jan-18 12:28 36.081436 -112.160196 343 29937ft 471kts
20-Jan-18 12:29 36.196599 -112.174492 347 29917ft 474kts
20-Jan-18 12:30 36.325591 -112.185475 347 29920ft 472kts
20-Jan-18 12:31 36.454653 -112.196457 347 29924ft 473kts
20-Jan-18 12:32 36.584210 -112.207551 347 29926ft 474kts
20-Jan-18 12:33 36.711232 -112.218391 347 29917ft 476kts
20-Jan-18 12:34 36.840921 -112.229601 347 29899ft 478kts
20-Jan-18 12:35 36.970886 -112.240809 347 29906ft 480kts
20-Jan-18 12:36 37.100121 -112.252064 348 29870ft 495kts
20-Jan-18 12:37 37.231717 -112.263470 348 29835ft 506kts
20-Jan-18 12:38 37.371739 -112.275583 349 29843ft 512kts
20-Jan-18 12:39 37.511353 -112.287834 349 29841ft 514kts
20-Jan-18 12:40 37.652568 -112.299642 350 29842ft 516kts
20-Jan-18 12:41 37.794136 -112.304143 351 29849ft 518kts
20-Jan-18 12:42 37.934502 -112.317720 348 29850ft 516kts
20-Jan-18 12:43 38.072709 -112.338359 345 29850ft 513kts
20-Jan-18 12:44 38.191574 -112.365772 340 29844ft 507kts
20-Jan-18 12:45 38.329793 -112.388937 346 29893ft 510kts
20-Jan-18 12:46 38.468576 -112.407704 346 29941ft 507kts
20-Jan-18 12:47 38.608730 -112.420436 353 29943ft 514kts
20-Jan-18 12:48 38.748482 -112.425115 343 29974ft 503kts
20-Jan-18 12:49 38.886148 -112.447988 346 29967ft 508kts
20-Jan-18 12:50 39.024037 -112.467025 347 29969ft 509kts
20-Jan-18 12:51 39.127773 -112.481001 347 28690ft 492kts
20-Jan-18 12:52 39.220291 -112.492677 355 27233ft 482kts
20-Jan-18 12:53 39.349820 -112.483391 359 25231ft 463kts
20-Jan-18 12:54 39.471724 -112.450557 12 23303ft 447kts
20-Jan-18 12:55 39.587649 -112.412517 12 21429ft 428kts
20-Jan-18 12:56 39.698158 -112.376504 12 19619ft 409kts
20-Jan-18 12:57 39.802816 -112.342375 13 17869ft 391kts
20-Jan-18 12:58 39.901023 -112.310246 13 16956ft 352kts
20-Jan-18 12:59 39.987977 -112.281710 13 16979ft 316kts
20-Jan-18 13:00 40.072702 -112.253877 13 17052ft 334kts
20-Jan-18 13:01 40.155814 -112.226595 13 17028ft 346kts
20-Jan-18 13:02 40.223452 -112.155757 84 16217ft 332kts
20-Jan-18 13:03 40.205029 -112.047242 111 14724ft 311kts
20-Jan-18 13:04 40.202236 -111.941367 52 13197ft 312kts
20-Jan-18 13:05 40.278482 -111.904016 11 11983ft 294kts
20-Jan-18 13:06 40.352049 -111.884628 11 11990ft 270kts
20-Jan-18 13:07 40.423432 -111.882418 341 11787ft 260kts
20-Jan-18 13:08 40.487969 -111.909932 341 10425ft 256kts
20-Jan-18 13:09 40.545253 -111.934111 341 9828ft 203kts
20-Jan-18 13:10 40.594893 -111.952261 352 8667ft 186kts
20-Jan-18 13:11 40.640270 -111.957550 352 6931ft 172kts
20-Jan-18 13:12 40.680764 -111.962227 351 6109ft 134kts
20-Jan-18 13:13 40.715715 -111.966314 351 5428ft 135kts
20-Jan-18 13:14 40.751521 -111.970453 351 4728ft 134kts
20-Jan-18 13:15 40.786183 -111.974495 354 4236ft 94kts
20-Jan-18 13:16 40.795478 -111.977110 254 4236ft 0kts
20-Jan-18 13:17 40.795459 -111.977193 250 4236ft 3kts
20-Jan-18 13:18 40.790662 -111.977157 174 4236ft 22kts
20-Jan-18 13:19 40.789136 -111.977972 226 4236ft 0kts
20-Jan-18 13:20 40.789136 -111.977972 226 4236ft 0kts
20-Jan-18 13:21 40.789136 -111.977971 226 4236ft 0kts
20-Jan-18 13:22 40.789136 -111.977971 226 4236ft 0kts
20-Jan-18 13:23 40.789136 -111.977971 226 4236ft 0kts
20-Jan-18 13:24 40.789136 -111.977971 226 4236ft 0kts
20-Jan-18 13:25 40.789136 -111.977971 226 4236ft 0kts
20-Jan-18 13:26 40.789136 -111.977971 226 4236ft 0kts
20-Jan-18 13:27 40.789136 -111.977971 226 4236ft 0kts
20-Jan-18 13:28 40.789136 -111.977971 226 4236ft 0kts
20-Jan-18 13:29 40.789136 -111.977971 226 4236ft 0kts
20-Jan-18 13:30 40.789136 -111.977971 226 4236ft 0kts

Navigation Log

Ident Type
Flight plan parsing failed, navigation log unavailable